KDAY

James M Cox Dayton International Airport

Dayton, Ohio, USA
KDAY 182337Z 1900/1924 35004KT 5SM BR OVC010 FM190200 01003KT 5SM BR OVC008 FM190900 03003KT 2SM -RA BR OVC005 FM191400 VRB03KT 5SM BR OVC006 FM192100 28005KT P6SM OVC010
Issued Valid From Valid To
Nov-18 @ 23:37 UTC
(2 hours ago)
Nov-19 @ 00:00 UTC
(an hour ago)
Nov-20 @ 00:00 UTC
(in 23 hours)
Nov-19 @ 00:00 to Nov-19 @ 02:00
KDAY 182337Z 1900/1924 35004KT 5SM BR OVC010
Wind Visibility Clouds Conditions
350° at 4 knots 5 miles
  • Overcast at 1,000' AGL
  • Mist
From Nov-19 @ 02:00 to Nov-19 @ 09:00
FM190200 01003KT 5SM BR OVC008
Wind Visibility Clouds Conditions
10° at 3 knots 5 miles
  • Overcast at 800' AGL
  • Mist
From Nov-19 @ 09:00 to Nov-19 @ 14:00
FM190900 03003KT 2SM -RA BR OVC005
Wind Visibility Clouds Conditions
30° at 3 knots 2 miles
  • Overcast at 500' AGL
  • Light Rain
  • Mist
From Nov-19 @ 14:00 to Nov-19 @ 21:00
FM191400 VRB03KT 5SM BR OVC006
Wind Visibility Clouds Conditions
Variable at 3 knots 5 miles
  • Overcast at 600' AGL
  • Mist
From Nov-19 @ 21:00 to Nov-20 @ 00:00
FM192100 28005KT P6SM OVC010
Wind Visibility Clouds
280° at 5 knots Greater than 6 miles
  • Overcast at 1,000' AGL
KDAY 182337Z 1900/1924 35004KT 5SM BR OVC010 FM190200 01003KT 5SM BR OVC008 FM190900 03003KT 2SM -RA BR OVC005 FM191400 VRB03KT 5SM BR OVC006 FM192100 28005KT P6SM OVC010
Issued Nov-18 @ 23:37 UTC
(2 hours ago)
Valid From Nov-19 @ 00:00 UTC
(an hour ago)
Valid To Nov-20 @ 00:00 UTC
(in 23 hours)
Nov-19 @ 00:00 - Nov-19 @ 02:00
Wind Visibility
350° at 4 knots 5 miles
Clouds
  • Overcast at 1,000' AGL
Conditions
  • Mist
From Nov-19 @ 02:00 - Nov-19 @ 09:00
Wind Visibility
10° at 3 knots 5 miles
Clouds
  • Overcast at 800' AGL
Conditions
  • Mist
From Nov-19 @ 09:00 - Nov-19 @ 14:00
Wind Visibility
30° at 3 knots 2 miles
Clouds
  • Overcast at 500' AGL
Conditions
  • Light Rain
  • Mist
From Nov-19 @ 14:00 - Nov-19 @ 21:00
Wind Visibility
Variable at 3 knots 5 miles
Clouds
  • Overcast at 600' AGL
Conditions
  • Mist
From Nov-19 @ 21:00 - Nov-20 @ 00:00
Wind Visibility
280° at 5 knots Greater than 6 miles
Clouds
  • Overcast at 1,000' AGL